Nanortalik

KL  EN  DA
ASIAQ
Weather Now GREENLAND SURVEY
Updated [WGT/WGST] Temperature [°C] Wind [m/s] Air pressure [hPa] Relative humidity [%] Precipitation [mm]
Present Wind chill Speed Max
17.04 23:00-4,8-11,76,3 ⇘10,91013450,0
17.04 22:00-4,8-11,76,4 ⇘11,11013470,0
17.04 21:00-4,5-11,56,5 ⇘11,01013450,0
17.04 20:00-4,6-11,97,0 ⇘11,61012480,0
17.04 19:00-3,8-11,07,4 ⇘13,51012450,0
17.04 18:00-3,3-10,47,4 ⇘12,11011450,0
17.04 17:00-3,2-10,68,2 ⇘12,61011420,0
17.04 16:00-3,5-11,08,1 ⇘13,31010400,0
17.04 15:00-3,5-11,49,1 ⇘14,51010380,0
17.04 14:00-3,8-11,89,3 ⇘16,51008360,0
17.04 13:00-4,2-12,49,5 ⇘15,11008390,0
17.04 12:00-4,4-12,59,2 ⇘14,91008340,0
17.04 11:00-4,4-13,010,3 ⇘17,81008380,0
17.04 10:00-4,8-13,811,1 ⇘17,31007390,0
17.04 09:00-5,3-14,210,6 ⇘16,61008430,0
17.04 08:00-6,1-15,611,2 ⇘20,01007400,0
17.04 07:00-6,5-16,011,1 ⇘18,61006410,0
17.04 06:00-6,7-16,511,7 ⇘16,91006360,0
17.04 05:00-6,8-17,113,1 ⇘21,01005390,0
17.04 04:00-7,2-17,813,4 ⇘19,41003430,0
17.04 03:00-7,4-17,311,2 ⇘19,41003390,0
17.04 02:00-7,4-16,910,2 ⇘16,81004470,0
17.04 01:00-7,5-17,010,1 ⇘17,01003470,0
17.04 00:00-7,3-16,69,9 ⇘17,31003470,0
16.04 23:00-6,9-16,19,9 ⇘16,51002460,0
Position: (60.14111111,-45.23444444)

[Back]